To NAV CANADA Home Page Login to a new session Search on AWWS site Feedback and Comments Disclaimer Vers la page française équivalente Tips FAQ What's new on the site To the Forecasts and Observations / NOTAM section To "File a Flight Plan" website Publications and other links Update of the User's profile FIC Telephone Numbers My Weather Data Folder Route Weather Data Regional Weather Data Local Weather Data To the Forecasts and Observations / NOTAM section
Request Generated 05/25/2017 at 01:13:53 UTC . Weather information available at that time is displayed.

METAR/TAF

PRINCE ALBERT (GLASS FIELD)/SK    

METAR CYPA 250100Z 11017G25KT 12SM BKN080 BKN130 OVC250 17/06 A2915
RMK AC5AC2CI1 SLP876 DENSITY ALT 2700FT=
METAR CYPA 250000Z CCA 09011KT 10SM BKN090 BKN130 BKN250 17/09 A2914
RMK AC5AC1CI1 SLP875 DENSITY ALT 2800FT=
METAR CYPA 250000Z 09011KT 10SM BKN090 BKN130 BKN250 17/09 A2914 RMK
AC5AC1CI1 SLP875 DENSITY ALT 2800FT=
METAR CYPA 242300Z 08007KT 10SM FEW060 BKN130 OVC210 16/12 A2916 RMK
SC2AC3CI3 SLP880 DENSITY ALT 2700FT=

TAF CYPA 250038Z 2501/2513 09012KT P6SM BKN090 TEMPO 2501/2504 P6SM
-SHRA OVC060 PROB30 2501/2504 VRB20G30KT 5SM TSRA OVC040CB
FM250400 13015G25KT P6SM -SHRA BKN030 TEMPO 2504/2511 5SM -SHRA
BR BKN020
FM251100 08006KT P6SM BKN040
RMK NXT FCST BY 250700Z=
Your time UTC time
Weather data provided by Environment Canada and NAV CANADA